Time;durP1;ratioP1;P1;durP2;ratioP2;P2;SDS_P1;SDS_P2;PMS_P1;PMS_P2;Temp;Humidity;BMP_temperature;BMP_pressure;BME280_temperature;BME280_humidity;BME280_pressure;Samples;Min_cycle;Max_cycle;Signal;HPM_P1;HPM_P2
2021/03/10 00:00:56;;;;;;;43.58;31.92;;;;;;;5.05;68.56;94391.94;4208779;28;20058;-70
2021/03/10 00:02:57;;;;;;;49.50;33.88;;;;;;;5.08;68.94;94389.09;4219870;28;20059;-70
2021/03/10 00:04:59;;;;;;;48.85;32.83;;;;;;;4.96;68.39;94382.38;4244611;27;20395;-71
2021/03/10 00:07:00;;;;;;;44.42;29.50;;;;;;;4.90;67.48;94376.78;4229205;27;20044;-71
2021/03/10 00:09:01;;;;;;;34.55;24.17;;;;;;;4.86;66.45;94378.00;4228748;27;20548;-69
2021/03/10 00:11:02;;;;;;;38.85;25.48;;;;;;;4.90;66.72;94376.78;4238243;27;20124;-71
2021/03/10 00:13:04;;;;;;;43.78;28.83;;;;;;;4.98;67.02;94367.50;4198158;28;20048;-71
2021/03/10 00:15:06;;;;;;;34.67;23.25;;;;;;;5.05;66.32;94378.97;4215164;28;20521;-72
2021/03/10 00:17:08;;;;;;;31.55;21.85;;;;;;;5.07;65.56;94371.88;4214398;28;20521;-71
2021/03/10 00:19:09;;;;;;;32.10;19.17;;;;;;;5.18;65.47;94371.75;4244697;27;20490;-70
2021/03/10 00:21:10;;;;;;;28.90;18.98;;;;;;;5.16;64.92;94371.06;4209762;28;20127;-70
2021/03/10 00:23:11;;;;;;;30.13;19.73;;;;;;;5.22;65.29;94367.13;4208238;28;20086;-73
2021/03/10 00:25:13;;;;;;;30.90;19.75;;;;;;;5.27;64.59;94351.94;4210537;28;20040;-70
2021/03/10 00:27:23;;;;;;;24.60;17.90;;;;;;;5.30;64.82;94342.13;4227276;28;20616;-73
2021/03/10 00:29:24;;;;;;;25.85;18.45;;;;;;;5.36;64.58;94348.56;4219406;27;20051;-72
2021/03/10 00:31:25;;;;;;;24.70;18.73;;;;;;;5.36;63.99;94335.56;4232844;27;20051;-72
2021/03/10 00:33:27;;;;;;;26.08;17.85;;;;;;;5.30;63.68;94331.72;4228114;28;20050;-71
2021/03/10 00:35:29;;;;;;;26.20;18.67;;;;;;;5.21;64.48;94323.94;4196646;28;20052;-72
2021/03/10 00:37:31;;;;;;;27.02;18.38;;;;;;;5.21;65.67;94327.34;4198782;28;20044;-71
2021/03/10 00:39:32;;;;;;;23.95;17.33;;;;;;;5.07;65.51;94325.13;4199387;28;20059;-73
2021/03/10 00:41:34;;;;;;;28.30;19.10;;;;;;;5.07;66.41;94331.16;4227699;28;20051;-72
2021/03/10 00:43:35;;;;;;;26.63;18.70;;;;;;;5.09;66.12;94338.81;4209931;28;20063;-71
2021/03/10 00:45:36;;;;;;;29.63;18.70;;;;;;;5.16;66.60;94339.09;4227214;28;20051;-70
2021/03/10 00:47:38;;;;;;;25.55;17.95;;;;;;;5.13;65.38;94328.00;4226723;28;20055;-73
2021/03/10 00:49:40;;;;;;;26.17;19.48;;;;;;;5.20;65.89;94330.06;4227574;28;20052;-71
2021/03/10 00:51:41;;;;;;;29.63;19.70;;;;;;;5.19;65.52;94321.47;4194205;28;20059;-72
2021/03/10 00:53:43;;;;;;;30.05;19.83;;;;;;;5.20;66.72;94320.50;4210394;28;20044;-73
2021/03/10 00:55:44;;;;;;;28.67;19.52;;;;;;;5.19;65.97;94305.88;4226091;28;20047;-73
2021/03/10 00:57:46;;;;;;;26.55;19.63;;;;;;;5.17;65.36;94313.00;4210077;28;20053;-70
2021/03/10 00:59:47;;;;;;;29.27;19.40;;;;;;;5.12;65.48;94315.19;4210469;28;20058;-72
2021/03/10 01:01:49;;;;;;;29.48;21.52;;;;;;;5.01;65.90;94310.94;4207016;28;20469;-70
2021/03/10 01:03:50;;;;;;;29.33;21.25;;;;;;;5.00;66.18;94313.66;4210055;28;20062;-71
2021/03/10 01:05:51;;;;;;;27.52;21.25;;;;;;;5.02;66.42;94303.97;4208022;28;20047;-71
2021/03/10 01:07:52;;;;;;;31.35;22.08;;;;;;;5.07;66.88;94309.56;4208926;28;20044;-70
2021/03/10 01:09:54;;;;;;;28.33;21.50;;;;;;;5.04;66.41;94295.09;4210136;28;20070;-72
2021/03/10 01:11:56;;;;;;;31.70;22.02;;;;;;;5.11;66.76;94295.34;4192215;28;20048;-71
2021/03/10 01:13:57;;;;;;;28.63;21.65;;;;;;;5.13;66.62;94293.44;4212655;28;20060;-85
2021/03/10 01:15:59;;;;;;;31.83;23.40;;;;;;;5.05;66.94;94298.50;4220312;28;20048;-83
2021/03/10 01:18:00;;;;;;;35.30;23.35;;;;;;;5.08;66.85;94296.44;4236936;28;20050;-82
2021/03/10 01:20:07;;;;;;;35.47;23.42;;;;;;;5.03;66.98;94287.41;4209585;28;20048;-70
2021/03/10 01:22:09;;;;;;;32.08;23.77;;;;;;;5.10;66.79;94297.13;4224315;28;20526;-70
2021/03/10 01:24:10;;;;;;;37.72;25.55;;;;;;;5.17;67.22;94288.81;4227244;28;20048;-69
2021/03/10 01:26:11;;;;;;;36.75;26.55;;;;;;;5.21;66.67;94297.97;4209766;28;20050;-71
2021/03/10 01:28:13;;;;;;;34.17;25.00;;;;;;;5.27;66.86;94292.22;4208020;28;20154;-71
2021/03/10 01:30:15;;;;;;;32.85;23.02;;;;;;;5.32;67.12;94285.66;4213192;28;20048;-70
2021/03/10 01:32:16;;;;;;;34.47;22.33;;;;;;;5.37;66.87;94287.84;4202940;28;20160;-71
2021/03/10 01:34:18;;;;;;;33.05;24.40;;;;;;;5.36;67.38;94285.41;4215977;28;20101;-70
2021/03/10 01:36:19;;;;;;;35.55;25.35;;;;;;;5.31;67.48;94284.03;4227174;28;20044;-71
2021/03/10 01:38:20;;;;;;;37.38;25.73;;;;;;;5.22;67.95;94278.81;4218128;28;20583;-70
2021/03/10 01:40:22;;;;;;;34.38;25.65;;;;;;;5.19;68.36;94277.31;4230232;28;20062;-70
2021/03/10 01:42:23;;;;;;;33.53;24.10;;;;;;;5.08;68.65;94278.28;4207888;28;20052;-70
2021/03/10 01:44:24;;;;;;;35.85;24.80;;;;;;;5.00;68.15;94275.53;4215311;28;20052;-70
2021/03/10 01:46:33;;;;;;;37.40;24.52;;;;;;;5.00;69.15;94272.94;4217373;28;20051;-84
2021/03/10 01:48:35;;;;;;;35.50;26.30;;;;;;;5.02;69.19;94259.84;4213691;28;20442;-85
2021/03/10 01:50:37;;;;;;;40.75;26.25;;;;;;;5.05;69.57;94265.56;4196835;28;20052;-85
2021/03/10 01:52:38;;;;;;;37.50;25.45;;;;;;;5.07;68.79;94271.44;4220160;28;20048;-83
2021/03/10 01:54:40;;;;;;;35.15;25.80;;;;;;;5.07;69.52;94261.03;4228132;28;20060;-83
2021/03/10 01:56:42;;;;;;;37.00;27.42;;;;;;;5.03;70.30;94261.47;4231546;28;20048;-82
2021/03/10 01:58:43;;;;;;;35.63;25.30;;;;;;;4.93;70.18;94251.91;4212998;28;20048;-83
2021/03/10 02:00:45;;;;;;;39.58;27.73;;;;;;;4.94;70.46;94252.72;4205038;28;20414;-82
2021/03/10 02:02:46;;;;;;;39.03;28.27;;;;;;;4.87;70.94;94249.03;4197878;28;20057;-84
2021/03/10 02:04:47;;;;;;;40.45;27.60;;;;;;;4.87;71.14;94246.44;4216528;28;20507;-84
2021/03/10 02:07:22;;;;;;;39.85;27.58;;;;;;;4.62;70.99;94237.38;4221404;28;20051;-83
2021/03/10 02:10:02;;;;;;;39.70;26.15;;;;;;;4.54;71.73;94227.69;4216696;28;20070;-82
2021/03/10 02:12:22;;;;;;;38.97;27.67;;;;;;;4.57;72.41;94230.00;4226606;28;20055;-82
2021/03/10 02:14:52;;;;;;;38.28;27.58;;;;;;;4.55;72.21;94241.47;4228172;28;20444;-84
2021/03/10 02:17:10;;;;;;;43.20;29.35;;;;;;;4.61;71.92;94226.19;4216187;28;20051;-83
2021/03/10 02:19:39;;;;;;;41.92;28.42;;;;;;;4.61;72.03;94223.59;4186388;28;20077;-83
2021/03/10 02:22:04;;;;;;;42.67;29.38;;;;;;;4.65;72.42;94224.16;4188990;28;20060;-84
2021/03/10 02:24:34;;;;;;;38.85;26.65;;;;;;;4.65;71.49;94213.78;4234692;28;20051;-84
2021/03/10 02:27:31;;;;;;;41.47;28.17;;;;;;;4.53;71.94;94222.63;4232943;28;20051;-84
2021/03/10 02:29:33;;;;;;;43.65;28.40;;;;;;;4.46;72.85;94206.78;4231367;27;20050;-84
2021/03/10 02:31:50;;;;;;;44.78;28.60;;;;;;;4.47;72.90;94213.59;4214731;28;20409;-84
2021/03/10 02:33:52;;;;;;;41.47;27.88;;;;;;;4.48;72.59;94208.28;4213621;28;20487;-70
2021/03/10 02:36:05;;;;;;;46.10;28.38;;;;;;;4.36;72.33;94216.31;4227342;28;20046;-69
2021/03/10 02:38:10;;;;;;;42.50;28.83;;;;;;;4.33;73.24;94209.63;4216129;27;20044;-69
2021/03/10 02:40:13;;;;;;;40.92;28.45;;;;;;;4.34;73.89;94203.47;4242011;27;20490;-71
2021/03/10 02:42:14;;;;;;;42.55;30.25;;;;;;;4.30;73.51;94210.72;4210395;28;20048;-71
2021/03/10 02:44:16;;;;;;;43.60;30.08;;;;;;;4.30;73.50;94204.69;4202853;28;20044;-71
2021/03/10 02:46:18;;;;;;;41.45;28.70;;;;;;;4.21;74.06;94197.72;4225871;28;20044;-69
2021/03/10 02:48:21;;;;;;;44.63;29.75;;;;;;;4.05;75.08;94206.81;4212059;28;20098;-68
2021/03/10 02:50:23;;;;;;;44.53;30.80;;;;;;;4.13;74.96;94208.75;4199788;28;20056;-71
2021/03/10 02:52:25;;;;;;;47.05;30.67;;;;;;;4.20;75.32;94191.72;4217343;28;20051;-70
2021/03/10 02:54:27;;;;;;;43.08;29.88;;;;;;;4.31;74.94;94203.75;4229109;28;20120;-70
2021/03/10 02:56:28;;;;;;;47.47;30.35;;;;;;;4.38;74.58;94191.06;4196022;28;20476;-70
2021/03/10 02:58:29;;;;;;;40.92;29.25;;;;;;;4.36;73.49;94193.78;4224532;28;20051;-71
2021/03/10 03:00:30;;;;;;;44.00;29.50;;;;;;;4.27;74.82;94190.22;4192673;28;20508;-71
2021/03/10 03:02:32;;;;;;;45.72;30.05;;;;;;;4.25;75.04;94197.31;4202923;28;20043;-71
2021/03/10 03:04:33;;;;;;;45.45;29.08;;;;;;;4.34;74.07;94192.28;4228156;28;20204;-71
2021/03/10 03:06:51;;;;;;;47.78;30.42;;;;;;;4.37;74.59;94186.84;4213298;28;20487;-69
2021/03/10 03:08:52;;;;;;;45.08;30.23;;;;;;;4.44;73.90;94196.53;4226525;28;20052;-72
2021/03/10 03:10:53;;;;;;;41.28;28.35;;;;;;;4.51;73.58;94189.03;4210490;28;20059;-70
2021/03/10 03:12:55;;;;;;;41.25;28.42;;;;;;;4.36;73.77;94191.19;4194921;28;20060;-69
2021/03/10 03:14:58;;;;;;;42.10;28.98;;;;;;;4.24;74.24;94181.91;4223885;28;20051;-70
2021/03/10 03:17:02;;;;;;;46.42;30.45;;;;;;;4.30;74.59;94189.97;4209461;28;20487;-70
2021/03/10 03:19:04;;;;;;;41.85;27.83;;;;;;;4.25;74.86;94199.91;4209334;28;20044;-68
2021/03/10 03:21:05;;;;;;;44.00;30.13;;;;;;;4.28;75.22;94183.25;4211421;28;20097;-70
2021/03/10 03:23:07;;;;;;;43.03;28.85;;;;;;;4.16;74.94;94197.28;4211161;28;20056;-71
2021/03/10 03:25:11;;;;;;;46.75;29.83;;;;;;;4.03;75.84;94198.34;4193059;28;20053;-70
2021/03/10 03:27:25;;;;;;;46.38;30.60;;;;;;;3.94;75.60;94183.59;4215698;27;20052;-70
2021/03/10 03:29:26;;;;;;;42.60;30.52;;;;;;;3.86;76.47;94199.78;4218168;28;20442;-71
2021/03/10 03:31:30;;;;;;;43.00;30.65;;;;;;;3.92;76.22;94190.69;4226543;28;20096;-71
2021/03/10 03:33:32;;;;;;;45.03;30.33;;;;;;;3.98;76.18;94203.13;4228675;28;20147;-71
2021/03/10 03:35:33;;;;;;;40.55;29.15;;;;;;;3.82;76.13;94189.81;4225494;28;20139;-70
2021/03/10 03:37:35;;;;;;;44.17;29.65;;;;;;;3.77;76.68;94186.81;4210106;28;20491;-70
2021/03/10 03:39:36;;;;;;;42.42;28.80;;;;;;;3.81;76.70;94196.78;4211521;28;20352;-70
2021/03/10 03:41:39;;;;;;;42.00;28.95;;;;;;;3.87;76.38;94185.03;4208013;28;20063;-70
2021/03/10 03:43:40;;;;;;;45.42;29.80;;;;;;;3.72;77.56;94181.16;4207124;28;20056;-70
2021/03/10 03:45:41;;;;;;;45.17;30.33;;;;;;;3.76;77.46;94185.97;4209071;28;20493;-70
2021/03/10 03:47:43;;;;;;;44.60;30.20;;;;;;;3.78;77.57;94186.66;4228353;28;20403;-71
2021/03/10 03:49:46;;;;;;;44.78;29.55;;;;;;;3.74;77.86;94184.44;4209624;28;20052;-70
2021/03/10 03:51:48;;;;;;;47.50;30.83;;;;;;;3.76;77.54;94185.16;4211002;28;20051;-70
2021/03/10 03:54:05;;;;;;;44.97;30.17;;;;;;;3.84;77.24;94186.13;4239349;27;20517;-70
2021/03/10 03:56:07;;;;;;;48.40;29.50;;;;;;;3.89;77.30;94176.22;4227783;28;21014;-70
2021/03/10 03:58:08;;;;;;;44.08;29.67;;;;;;;4.01;77.12;94186.47;4210613;28;20051;-70
2021/03/10 04:00:13;;;;;;;45.75;30.23;;;;;;;4.07;76.80;94186.75;4227783;28;20040;-71
2021/03/10 04:02:15;;;;;;;46.03;29.98;;;;;;;3.95;76.23;94182.63;4233195;27;20071;-71
2021/03/10 04:04:16;;;;;;;45.08;29.75;;;;;;;3.99;76.53;94188.38;4227515;28;20047;-71
2021/03/10 04:06:18;;;;;;;44.25;29.48;;;;;;;4.03;76.98;94182.78;4210481;28;20047;-70
2021/03/10 04:08:19;;;;;;;41.65;27.58;;;;;;;4.14;75.98;94178.47;4219323;28;20093;-69
2021/03/10 04:10:23;;;;;;;40.47;25.83;;;;;;;4.08;75.94;94178.03;4227783;28;20051;-71
2021/03/10 04:12:24;;;;;;;42.38;26.88;;;;;;;4.04;76.26;94176.66;4223264;28;20513;-71
2021/03/10 04:14:26;;;;;;;39.72;26.90;;;;;;;4.03;76.60;94174.19;4227832;28;20055;-70
2021/03/10 04:16:27;;;;;;;36.28;25.38;;;;;;;3.98;76.34;94173.75;4226321;28;20444;-70
2021/03/10 04:18:28;;;;;;;40.45;25.90;;;;;;;3.93;77.21;94178.53;4215501;28;20072;-69
2021/03/10 04:20:30;;;;;;;34.75;22.98;;;;;;;3.94;76.52;94173.22;4210801;28;20138;-71
2021/03/10 04:22:31;;;;;;;34.80;23.63;;;;;;;4.04;76.54;94171.50;4209005;28;20059;-71
2021/03/10 04:24:32;;;;;;;34.63;23.10;;;;;;;4.08;76.55;94162.47;4209483;28;20048;-71
2021/03/10 04:26:34;;;;;;;34.35;23.55;;;;;;;4.08;75.99;94156.47;4228046;28;20048;-70
2021/03/10 04:28:35;;;;;;;38.72;22.70;;;;;;;4.02;76.28;94157.84;4225847;28;20047;-69
2021/03/10 04:30:36;;;;;;;39.75;23.25;;;;;;;4.10;76.48;94152.78;4226369;28;20308;-70
2021/03/10 04:32:37;;;;;;;38.17;23.20;;;;;;;4.18;76.49;94162.50;4225724;28;20052;-72
2021/03/10 04:34:39;;;;;;;33.50;22.45;;;;;;;4.19;75.49;94153.75;4226531;28;20422;-70
2021/03/10 04:36:40;;;;;;;35.03;22.85;;;;;;;4.24;75.55;94161.97;4227242;28;20402;-70
2021/03/10 04:38:41;;;;;;;33.17;22.38;;;;;;;4.29;75.65;94156.38;4227712;28;20128;-70
2021/03/10 04:40:42;;;;;;;34.38;22.02;;;;;;;4.30;75.62;94168.38;4226845;28;20055;-71
2021/03/10 04:42:44;;;;;;;34.35;22.30;;;;;;;4.33;75.22;94147.38;4227636;28;20497;-70
2021/03/10 04:44:45;;;;;;;35.97;22.58;;;;;;;4.21;75.64;94157.03;4208834;28;20560;-72
2021/03/10 04:46:46;;;;;;;32.28;21.88;;;;;;;4.24;76.00;94155.97;4207116;28;20046;-70
2021/03/10 04:48:48;;;;;;;33.92;22.92;;;;;;;4.24;75.27;94159.38;4209263;28;20079;-70
2021/03/10 04:50:49;;;;;;;33.70;22.58;;;;;;;4.22;75.35;94147.50;4193381;28;20070;-72
2021/03/10 04:52:51;;;;;;;32.97;23.13;;;;;;;4.25;75.23;94157.59;4222422;28;20502;-72
2021/03/10 04:54:52;;;;;;;35.78;23.63;;;;;;;4.34;74.83;94156.78;4226846;28;20047;-70
2021/03/10 04:56:53;;;;;;;36.33;23.15;;;;;;;4.34;74.63;94148.19;4208442;28;20133;-70
2021/03/10 04:58:54;;;;;;;38.33;25.08;;;;;;;4.31;75.34;94147.50;4210252;28;20044;-72
2021/03/10 05:00:56;;;;;;;36.67;24.13;;;;;;;4.39;75.06;94151.19;4214247;28;20048;-70
2021/03/10 05:02:57;;;;;;;38.47;24.75;;;;;;;4.41;75.33;94147.53;4207588;28;20048;-71
2021/03/10 05:04:58;;;;;;;38.42;25.33;;;;;;;4.25;75.50;94147.22;4227233;28;20142;-71
2021/03/10 05:06:59;;;;;;;41.92;23.27;;;;;;;4.20;75.93;94144.22;4199036;28;20056;-73
2021/03/10 05:09:01;;;;;;;39.03;24.70;;;;;;;4.20;75.60;94139.84;4209067;28;20719;-71
2021/03/10 05:11:02;;;;;;;38.35;25.17;;;;;;;4.12;75.92;94142.28;4226944;28;20047;-72
2021/03/10 05:13:04;;;;;;;37.28;24.42;;;;;;;4.16;75.92;94146.25;4227534;28;20053;-69
2021/03/10 05:15:07;;;;;;;37.15;24.25;;;;;;;4.28;75.83;94149.53;4212121;28;20040;-69
2021/03/10 05:17:08;;;;;;;38.97;24.50;;;;;;;4.30;75.94;94148.47;4209852;28;20063;-71
2021/03/10 05:19:09;;;;;;;38.20;25.35;;;;;;;4.23;76.40;94143.94;4212523;28;20511;-72
2021/03/10 05:21:11;;;;;;;36.72;24.38;;;;;;;4.19;76.31;94145.16;4227073;28;20054;-70
2021/03/10 05:23:12;;;;;;;38.75;24.10;;;;;;;4.10;76.27;94139.81;4192148;28;20049;-71
2021/03/10 05:25:14;;;;;;;39.15;24.77;;;;;;;4.08;76.02;94144.31;4227357;28;20127;-71
2021/03/10 05:27:16;;;;;;;37.80;24.80;;;;;;;4.17;76.41;94141.88;4227604;28;20054;-71
2021/03/10 05:29:17;;;;;;;38.75;24.40;;;;;;;4.11;76.00;94148.44;4225686;28;20051;-71
2021/03/10 05:31:18;;;;;;;37.25;24.00;;;;;;;4.05;75.88;94142.00;4225121;28;20120;-70
2021/03/10 05:33:20;;;;;;;37.08;24.25;;;;;;;4.05;76.48;94147.19;4227278;28;20043;-72
2021/03/10 05:35:21;;;;;;;38.13;23.55;;;;;;;3.92;76.71;94144.03;4208743;28;20056;-71
2021/03/10 05:37:22;;;;;;;40.55;25.23;;;;;;;3.96;76.57;94141.97;4209270;28;20097;-70
2021/03/10 05:39:48;;;;;;;37.55;25.20;;;;;;;4.04;76.74;94145.56;4225316;28;20052;-70
2021/03/10 05:41:51;;;;;;;41.08;24.85;;;;;;;4.12;76.88;94136.28;4216070;28;20135;-69
2021/03/10 05:43:52;;;;;;;37.13;24.98;;;;;;;4.19;76.78;94143.38;4202165;28;20090;-70
2021/03/10 05:45:53;;;;;;;36.63;24.40;;;;;;;4.34;76.27;94138.63;4221963;28;20055;-70
2021/03/10 05:47:55;;;;;;;39.83;26.33;;;;;;;4.36;75.94;94128.13;4207695;28;20079;-71
2021/03/10 05:49:56;;;;;;;37.00;24.70;;;;;;;4.33;75.46;94134.41;4209897;28;20071;-70
2021/03/10 05:52:00;;;;;;;47.47;29.50;;;;;;;4.20;75.97;94134.66;4210770;28;20136;-70
2021/03/10 05:54:03;;;;;;;42.83;28.33;;;;;;;4.20;75.71;94139.84;4217035;28;20055;-71
2021/03/10 05:56:05;;;;;;;38.60;26.00;;;;;;;4.23;76.15;94130.97;4220643;28;20408;-69
2021/03/10 05:58:13;;;;;;;31.45;21.83;;;;;;;4.24;76.09;94133.44;4212251;28;20471;-73
2021/03/10 06:00:15;;;;;;;31.17;22.35;;;;;;;4.30;75.87;94132.06;4224754;28;20051;-73
2021/03/10 06:02:17;;;;;;;31.83;21.73;;;;;;;4.29;75.71;94140.81;4238680;27;20063;-71
2021/03/10 06:04:19;;;;;;;30.20;20.88;;;;;;;4.31;75.30;94136.31;4217090;28;20528;-71
2021/03/10 06:06:20;;;;;;;33.10;20.30;;;;;;;4.31;75.98;94134.53;4228501;28;20036;-70
2021/03/10 06:08:27;;;;;;;32.08;20.40;;;;;;;4.23;75.75;94141.34;4214745;28;20047;-71
2021/03/10 06:10:44;;;;;;;28.67;20.42;;;;;;;4.17;75.96;94145.28;4215298;28;20055;-86
2021/03/10 06:12:47;;;;;;;26.85;19.77;;;;;;;3.90;76.44;94143.34;4199049;28;20070;-84
2021/03/10 06:14:59;;;;;;;49.80;30.73;;;;;;;3.94;77.59;94152.50;4214477;28;20052;-84
2021/03/10 06:17:11;;;;;;;34.92;23.85;;;;;;;4.02;77.37;94141.44;4220023;28;20296;-83
2021/03/10 06:19:15;;;;;;;29.27;18.33;;;;;;;3.97;77.16;94143.63;4202615;28;20051;-86
2021/03/10 06:21:17;;;;;;;26.95;18.17;;;;;;;4.01;76.82;94142.41;4248710;27;20051;-85
2021/03/10 06:23:19;;;;;;;31.42;20.83;;;;;;;4.04;76.66;94142.13;4241198;28;20051;-84
2021/03/10 06:25:21;;;;;;;28.27;19.13;;;;;;;4.02;76.43;94146.63;4226981;28;20091;-86
2021/03/10 06:27:35;;;;;;;30.80;20.67;;;;;;;3.98;76.15;94134.88;4219319;28;20058;-84
2021/03/10 06:29:36;;;;;;;29.42;20.90;;;;;;;4.05;76.42;94129.06;4213845;28;20052;-87
2021/03/10 06:31:42;;;;;;;33.17;20.98;;;;;;;4.17;76.58;94127.16;4234736;28;20075;-72
2021/03/10 06:33:44;;;;;;;30.80;20.35;;;;;;;4.04;76.99;94130.03;4240713;27;20139;-71
2021/03/10 06:35:45;;;;;;;31.75;21.23;;;;;;;4.01;77.72;94132.84;4229545;28;20534;-85
2021/03/10 06:37:46;;;;;;;32.08;22.35;;;;;;;4.04;76.81;94132.59;4208481;28;20044;-73
2021/03/10 06:39:48;;;;;;;33.20;20.70;;;;;;;4.03;77.15;94132.72;4226108;27;20078;-71
2021/03/10 06:41:50;;;;;;;34.00;21.42;;;;;;;3.92;77.30;94131.06;4228091;27;20058;-73
2021/03/10 06:43:51;;;;;;;35.90;24.15;;;;;;;3.99;77.50;94142.53;4218885;28;20055;-86
2021/03/10 06:45:52;;;;;;;31.88;21.45;;;;;;;4.06;77.04;94135.84;4238376;28;20067;-86
2021/03/10 06:47:54;;;;;;;34.47;22.35;;;;;;;4.03;77.46;94143.91;4202773;28;20414;-85
2021/03/10 06:49:55;;;;;;;32.03;21.55;;;;;;;3.85;77.43;94138.56;4187346;28;20060;-87
2021/03/10 06:52:00;;;;;;;30.90;21.27;;;;;;;3.81;77.49;94138.97;4219560;28;20054;-85
2021/03/10 06:54:02;;;;;;;31.55;21.42;;;;;;;3.81;78.18;94139.78;4220085;28;20048;-88
2021/03/10 06:56:21;;;;;;;30.70;21.35;;;;;;;3.86;77.37;94147.16;4220952;28;20044;-88
2021/03/10 06:58:23;;;;;;;31.55;21.75;;;;;;;4.00;77.28;94159.75;4235963;28;20048;-86
2021/03/10 07:00:25;;;;;;;31.38;21.30;;;;;;;4.12;76.95;94157.84;4217099;28;20052;-73
2021/03/10 07:02:28;;;;;;;29.02;20.67;;;;;;;4.06;76.24;94148.81;4226303;27;20051;-72
2021/03/10 07:04:30;;;;;;;;;;;;;;;3.99;76.89;94163.28;4220957;28;20415;-73
2021/03/10 07:06:34;;;;;;;32.25;20.58;;;;;;;3.98;76.99;94155.63;4197092;28;19921;-72
2021/03/10 07:08:38;;;;;;;32.83;22.00;;;;;;;4.05;77.12;94167.94;4210928;28;20063;-72
2021/03/10 07:10:39;;;;;;;32.58;22.45;;;;;;;4.03;77.03;94169.03;4228359;28;20522;-72
2021/03/10 07:12:40;;;;;;;31.00;20.95;;;;;;;4.03;76.39;94172.44;4221078;28;20241;-74
2021/03/10 07:14:42;;;;;;;33.50;21.55;;;;;;;3.89;77.16;94180.56;4227243;28;20047;-70
2021/03/10 07:16:44;;;;;;;33.05;22.33;;;;;;;3.98;77.44;94169.41;4209601;28;20047;-72
2021/03/10 07:18:47;;;;;;;32.97;23.25;;;;;;;4.03;76.81;94167.25;4210921;28;20051;-71
2021/03/10 07:20:49;;;;;;;32.05;22.48;;;;;;;3.83;77.06;94175.88;4210634;28;20400;-71
2021/03/10 07:23:02;;;;;;;41.65;25.20;;;;;;;3.82;77.70;94169.91;4212564;28;20047;-72
2021/03/10 07:25:20;;;;;;;35.38;24.05;;;;;;;3.84;77.44;94177.53;4210751;28;20121;-71
2021/03/10 07:27:24;;;;;;;38.90;26.25;;;;;;;3.96;77.72;94171.31;4209386;28;20127;-72
2021/03/10 07:29:27;;;;;;;37.90;25.65;;;;;;;4.02;76.95;94172.53;4211303;28;20040;-71
2021/03/10 07:31:36;;;;;;;39.30;25.67;;;;;;;4.03;77.16;94175.00;4208653;28;20040;-71
2021/03/10 07:33:49;;;;;;;44.03;27.10;;;;;;;4.08;76.68;94175.44;4210867;28;20143;-71
2021/03/10 07:35:55;;;;;;;41.97;27.30;;;;;;;4.12;76.58;94172.59;4210091;28;20206;-72
2021/03/10 07:37:56;;;;;;;40.17;25.48;;;;;;;4.01;76.86;94171.72;4211305;28;20054;-70
2021/03/10 07:40:16;;;;;;;41.65;28.30;;;;;;;3.94;77.46;94173.22;4212552;28;20420;-71
2021/03/10 07:42:18;;;;;;;41.10;26.55;;;;;;;3.91;77.40;94163.09;4209393;28;20048;-75
2021/03/10 07:44:21;;;;;;;36.15;25.50;;;;;;;3.90;77.22;94161.47;4209510;28;20142;-72
2021/03/10 07:46:37;;;;;;;41.10;26.50;;;;;;;3.83;77.23;94178.47;4209823;28;20484;-71
2021/03/10 07:48:39;;;;;;;41.35;28.98;;;;;;;3.87;77.34;94172.94;4213084;28;20083;-71
2021/03/10 07:50:46;;;;;;;43.30;29.13;;;;;;;4.00;77.50;94164.94;4213813;28;20135;-73
2021/03/10 07:52:55;;;;;;;42.40;28.70;;;;;;;4.06;77.14;94160.97;4208903;28;20056;-73
2021/03/10 07:55:00;;;;;;;40.95;27.05;;;;;;;4.01;76.74;94163.16;4192597;28;20048;-73
2021/03/10 07:57:18;;;;;;;40.92;28.08;;;;;;;3.81;77.63;94170.06;4199156;28;20060;-85
2021/03/10 07:59:22;;;;;;;42.17;29.05;;;;;;;3.81;77.51;94163.09;4218032;28;20108;-89
2021/03/10 08:01:23;;;;;;;45.03;28.20;;;;;;;3.91;77.50;94170.88;4215545;28;20106;-86
2021/03/10 08:03:34;;;;;;;45.97;29.70;;;;;;;3.95;77.51;94161.91;4218767;28;20086;-84
2021/03/10 08:05:36;;;;;;;46.75;29.70;;;;;;;3.96;77.72;94168.72;4216277;28;20044;-72
2021/03/10 08:07:37;;;;;;;40.40;28.52;;;;;;;4.01;76.92;94156.19;4197790;28;20048;-70
2021/03/10 08:09:48;;;;;;;43.28;29.38;;;;;;;3.95;77.71;94167.06;4194474;28;20481;-72
2021/03/10 08:12:05;;;;;;;40.83;28.88;;;;;;;3.95;77.70;94167.06;4199616;28;20074;-84
2021/03/10 08:14:06;;;;;;;40.15;27.60;;;;;;;3.92;77.50;94162.16;4215164;28;20060;-85
2021/03/10 08:16:09;;;;;;;44.25;28.50;;;;;;;3.89;77.32;94157.22;4217366;28;20059;-86
2021/03/10 08:18:10;;;;;;;38.60;27.55;;;;;;;3.85;77.10;94161.03;4232878;27;20047;-86
2021/03/10 08:20:12;;;;;;;40.75;27.33;;;;;;;3.83;77.34;94163.78;4211441;28;20052;-87
2021/03/10 08:22:16;;;;;;;41.80;27.60;;;;;;;3.80;77.94;94145.06;4201617;28;20112;-87
2021/03/10 08:24:20;;;;;;;41.05;28.35;;;;;;;3.89;78.02;94145.13;4236285;28;20084;-83
2021/03/10 08:26:22;;;;;;;40.88;28.10;;;;;;;3.93;77.37;94145.66;4229781;28;20077;-86
2021/03/10 08:28:23;;;;;;;38.55;27.55;;;;;;;3.93;77.84;94137.88;4198570;28;20048;-85
2021/03/10 08:30:24;;;;;;;41.70;28.75;;;;;;;4.02;77.61;94137.09;4234572;28;20104;-84
2021/03/10 08:32:28;;;;;;;45.83;29.25;;;;;;;3.93;77.46;94131.88;4215841;28;20043;-90
2021/03/10 08:34:36;;;;;;;44.10;29.95;;;;;;;4.02;77.64;94139.69;4218065;28;20082;-89
2021/03/10 08:36:38;;;;;;;42.58;27.73;;;;;;;3.86;78.10;94141.97;4234778;28;20047;-88
2021/03/10 08:38:39;;;;;;;44.05;30.25;;;;;;;3.90;77.94;94143.34;4241202;27;20104;-88
2021/03/10 08:40:42;;;;;;;41.30;28.67;;;;;;;3.96;77.71;94132.44;4215994;28;20074;-87
2021/03/10 08:42:44;;;;;;;43.70;29.63;;;;;;;4.08;77.87;94131.34;4198746;28;20052;-83
2021/03/10 08:44:47;;;;;;;47.15;30.73;;;;;;;4.12;77.48;94138.88;4201341;28;20079;-73
2021/03/10 08:46:49;;;;;;;47.92;31.33;;;;;;;4.14;77.59;94130.03;4226166;28;20058;-73
2021/03/10 08:48:51;;;;;;;49.25;32.25;;;;;;;4.15;78.09;94139.44;4227063;27;20131;-70
2021/03/10 08:50:52;;;;;;;45.10;29.88;;;;;;;4.17;78.10;94134.91;4228303;28;20048;-72
2021/03/10 08:52:53;;;;;;;43.58;30.80;;;;;;;4.10;77.42;94145.00;4226714;27;20071;-72
2021/03/10 08:54:56;;;;;;;46.30;31.73;;;;;;;3.99;78.15;94145.13;4227544;28;20047;-71
2021/03/10 08:56:58;;;;;;;48.20;32.75;;;;;;;3.93;78.47;94153.44;4209021;28;20040;-73
2021/03/10 08:58:59;;;;;;;50.33;34.08;;;;;;;3.95;78.59;94148.13;4228454;28;20403;-74
2021/03/10 09:01:00;;;;;;;48.38;33.20;;;;;;;3.90;78.54;94148.53;4208699;28;20059;-73
2021/03/10 09:03:12;;;;;;;50.00;33.88;;;;;;;3.76;79.10;94154.06;4227693;28;20469;-73
2021/03/10 09:05:14;;;;;;;50.72;33.28;;;;;;;3.75;79.35;94153.25;4221480;28;20057;-71
2021/03/10 09:07:17;;;;;;;46.97;30.88;;;;;;;3.74;79.46;94155.97;4217724;28;20040;-73
2021/03/10 09:09:19;;;;;;;48.85;32.90;;;;;;;3.76;79.17;94156.66;4191477;28;20057;-70
2021/03/10 09:11:25;;;;;;;43.08;31.52;;;;;;;3.85;79.46;94148.06;4190968;28;20777;-74
2021/03/10 09:13:27;;;;;;;41.50;30.38;;;;;;;3.79;78.54;94146.03;4205646;28;20086;-73
2021/03/10 09:15:30;;;;;;;43.13;30.42;;;;;;;3.78;78.65;94155.56;4207967;28;20218;-73
2021/03/10 09:17:35;;;;;;;41.95;29.95;;;;;;;3.70;79.34;94152.84;4191929;28;20106;-74
2021/03/10 09:19:46;;;;;;;40.80;30.23;;;;;;;3.81;79.49;94147.53;4213543;28;20051;-73
2021/03/10 09:21:48;;;;;;;43.60;31.42;;;;;;;3.93;79.26;94148.25;4219007;28;20473;-72
2021/03/10 09:24:00;;;;;;;44.25;30.35;;;;;;;4.07;78.70;94152.25;4219399;28;20054;-72
2021/03/10 09:26:01;;;;;;;42.97;30.73;;;;;;;3.97;78.42;94162.59;4203330;28;20056;-73
2021/03/10 09:28:10;;;;;;;43.95;30.70;;;;;;;3.86;78.66;94165.28;4209904;28;20050;-72
2021/03/10 09:30:27;;;;;;;43.50;32.40;;;;;;;3.85;78.83;94161.88;4206937;28;20054;-73
2021/03/10 09:32:45;;;;;;;42.90;29.88;;;;;;;3.87;79.04;94170.34;4206203;28;20055;-74
2021/03/10 09:34:51;;;;;;;39.55;29.60;;;;;;;3.79;79.39;94166.78;4208082;28;20122;-73
2021/03/10 09:36:53;;;;;;;38.22;28.77;;;;;;;3.65;79.36;94176.50;4200393;28;20044;-73
2021/03/10 09:38:55;;;;;;;38.85;29.17;;;;;;;3.59;79.97;94163.25;4221625;28;20604;-75